Disclaimer

Please do not use the information listed here in-flight or in-navigation, as they are not provided to us by the airports but are provided by volunteers, so they might be outdated.

Search


Regions


Airport information page

No radio frequency information is available.

Airport informations:
Latitude: 36° 58' 17.00" N
Longitude: 025° 10' 14.30" W
Elevation: 308 feet - 94 meters
Operating hours: Remarks
Operating agency: Civil government, landing fees and diplomatic clearance may be required
Timezone: UTC-1(0 DT) - Last Sunday in March to last Sunday in October
Fuel: Jet A1+, Jet A1 with icing inhibitor.

100/130 MIL Spec, low lead, aviation gasoline (BLUE)

Runway information:
04/22 - 4345 x 148 feet< - >1324 x 45 meters
15/33 - 6004 x 148 feet< - >1830 x 45 meters
18/36 - 10000 x 197 feet< - >3048 x 60 meters

Recent METARs:
LPAZ 192130Z 34012KT 9999 FEW018 16/11 Q1017
LPAZ 192200Z 34017KT 9999 FEW018 BKN036 16/12 Q1017
LPAZ 192230Z 36013KT 9999 FEW020 16/12 Q1018

Airport on the map: